Time;durP1;ratioP1;P1;durP2;ratioP2;P2;SDS_P1;SDS_P2;PMS_P1;PMS_P2;Temp;Humidity;BMP_temperature;BMP_pressure;BME280_temperature;BME280_humidity;BME280_pressure;Samples;Min_cycle;Max_cycle;Signal;HPM_P1;HPM_P2
2023/10/03 00:04:41;;;;;;;11.88;5.00;;;;;;;17.41;44.73;98064.19;10485288;28;20414;-73
2023/10/03 00:10:02;;;;;;;13.20;4.65;;;;;;;17.37;44.93;98069.66;10485237;28;20044;-72
2023/10/03 00:15:24;;;;;;;12.57;5.00;;;;;;;17.36;45.10;98079.47;10471346;28;20226;-72
2023/10/03 00:20:45;;;;;;;9.80;4.90;;;;;;;17.36;45.05;98068.16;10471029;28;20517;-73
2023/10/03 00:26:15;;;;;;;12.70;5.85;;;;;;;17.28;45.13;98056.53;10499832;28;20123;-73
2023/10/03 00:31:38;;;;;;;12.65;5.18;;;;;;;17.21;45.25;98051.97;10459030;28;20068;-73
2023/10/03 00:36:59;;;;;;;15.73;6.07;;;;;;;17.07;45.79;98054.13;10484899;28;20068;-74
2023/10/03 00:42:20;;;;;;;12.45;5.45;;;;;;;16.96;45.94;98055.72;10484330;28;20102;-74
2023/10/03 00:47:41;;;;;;;14.02;5.30;;;;;;;16.76;46.33;98055.50;10484031;28;20068;-74
2023/10/03 00:53:09;;;;;;;12.35;5.40;;;;;;;16.52;46.44;98049.38;10469542;28;20064;-72
2023/10/03 00:58:31;;;;;;;15.02;6.13;;;;;;;16.34;46.87;98045.66;10458403;28;20115;-72
2023/10/03 01:03:51;;;;;;;11.90;5.28;;;;;;;16.25;47.41;98030.44;10456244;28;20120;-74
2023/10/03 01:09:20;;;;;;;11.68;5.45;;;;;;;16.14;47.78;98027.75;10482494;28;20080;-74
2023/10/03 01:14:42;;;;;;;14.45;5.05;;;;;;;16.07;48.16;98021.09;10498048;28;20171;-73
2023/10/03 01:20:09;;;;;;;13.43;5.20;;;;;;;16.03;48.62;98026.53;10483007;28;20431;-73
2023/10/03 01:25:34;;;;;;;11.98;5.18;;;;;;;16.02;48.50;98011.00;10456498;28;20402;-72
2023/10/03 01:30:55;;;;;;;11.88;4.72;;;;;;;15.87;48.74;97995.47;10456221;28;20147;-73
2023/10/03 01:36:16;;;;;;;14.40;5.75;;;;;;;15.77;48.99;98006.19;10468742;28;20068;-73
2023/10/03 01:41:37;;;;;;;13.18;5.20;;;;;;;15.64;49.16;97996.41;10455719;28;20148;-73
2023/10/03 01:46:58;;;;;;;13.45;5.28;;;;;;;15.53;49.92;97977.50;10468977;28;20067;-73
2023/10/03 01:52:19;;;;;;;13.25;5.30;;;;;;;15.44;50.35;97967.16;10468398;28;20116;-73
2023/10/03 01:57:41;;;;;;;12.88;5.68;;;;;;;15.49;50.44;97968.84;10468558;28;20060;-73
2023/10/03 02:03:08;;;;;;;12.70;5.47;;;;;;;15.58;50.61;97959.47;10454992;28;20077;-72
2023/10/03 02:08:28;;;;;;;13.48;5.90;;;;;;;15.65;50.92;97963.38;10482829;28;20064;-72
2023/10/03 02:13:49;;;;;;;13.60;4.97;;;;;;;15.65;51.09;97952.84;10468331;28;20115;-72
2023/10/03 02:19:10;;;;;;;15.88;5.40;;;;;;;15.58;51.16;97941.88;10470735;28;20051;-73
2023/10/03 02:24:31;;;;;;;13.63;4.75;;;;;;;15.51;51.57;97923.94;10490002;28;20078;-73
2023/10/03 02:29:52;;;;;;;15.48;5.10;;;;;;;15.51;51.60;97915.50;10489530;28;20044;-74
2023/10/03 02:35:14;;;;;;;12.45;5.18;;;;;;;15.46;51.80;97917.41;10504484;28;20068;-73
2023/10/03 02:40:35;;;;;;;11.63;4.78;;;;;;;15.42;52.37;97919.25;10447916;28;20129;-72
2023/10/03 02:45:59;;;;;;;12.00;5.13;;;;;;;15.41;52.52;97912.19;10475754;28;20056;-73
2023/10/03 02:51:23;;;;;;;12.90;5.38;;;;;;;15.24;52.51;97898.63;10475153;28;20119;-72
2023/10/03 02:56:44;;;;;;;12.73;5.03;;;;;;;15.07;52.90;97886.56;10488740;28;20051;-73
2023/10/03 03:02:05;;;;;;;12.23;4.72;;;;;;;14.98;53.20;97884.69;10474349;28;20068;-74
2023/10/03 03:07:27;;;;;;;14.38;4.75;;;;;;;14.91;53.84;97887.78;10446870;28;20086;-74
2023/10/03 03:12:49;;;;;;;11.25;4.60;;;;;;;14.87;54.11;97891.13;10502924;28;20109;-74
2023/10/03 03:18:12;;;;;;;9.88;4.40;;;;;;;14.82;54.57;97878.19;10487787;28;20478;-73
2023/10/03 03:23:36;;;;;;;11.23;5.03;;;;;;;14.81;54.70;97885.16;10473897;28;20550;-73
2023/10/03 03:28:58;;;;;;;11.10;4.65;;;;;;;14.80;55.64;97886.53;10474638;28;20478;-72
2023/10/03 03:34:20;;;;;;;10.65;4.95;;;;;;;14.81;55.59;97885.91;10473237;28;20071;-72
2023/10/03 03:39:53;;;;;;;10.48;4.45;;;;;;;14.86;56.25;97890.38;10487149;28;20045;-73
2023/10/03 03:45:17;;;;;;;12.43;5.10;;;;;;;14.83;55.71;97879.66;10488634;28;20453;-73
2023/10/03 03:50:39;;;;;;;11.25;5.05;;;;;;;14.67;55.67;97873.16;10474394;28;20371;-73
2023/10/03 03:56:01;;;;;;;12.63;5.00;;;;;;;14.56;56.53;97878.22;10472690;28;20033;-73
2023/10/03 04:01:22;;;;;;;12.02;4.70;;;;;;;14.56;56.73;97858.56;10486238;28;20040;-73
2023/10/03 04:06:43;;;;;;;11.38;4.70;;;;;;;14.66;57.26;97866.09;10444738;28;20061;-72
2023/10/03 04:12:04;;;;;;;12.55;4.65;;;;;;;14.69;57.47;97859.97;10444392;28;20534;-73
2023/10/03 04:17:24;;;;;;;13.70;4.40;;;;;;;14.73;57.44;97843.31;10430584;28;20478;-73
2023/10/03 04:22:46;;;;;;;15.57;4.65;;;;;;;14.70;57.25;97841.03;10430648;28;20095;-73
2023/10/03 04:28:11;;;;;;;14.02;5.05;;;;;;;14.65;57.89;97828.84;10443893;28;20336;-73
2023/10/03 04:33:32;;;;;;;10.18;4.63;;;;;;;14.58;58.42;97824.25;10444218;28;20033;-73
2023/10/03 04:38:53;;;;;;;10.30;4.60;;;;;;;14.52;58.31;97827.47;10443865;28;20061;-73
2023/10/03 04:44:15;;;;;;;14.20;4.63;;;;;;;14.42;58.64;97832.50;10442419;28;20044;-73
2023/10/03 04:49:35;;;;;;;11.57;4.95;;;;;;;14.33;59.32;97820.13;10429209;28;20064;-72
2023/10/03 04:54:57;;;;;;;11.80;4.63;;;;;;;14.31;59.34;97813.66;10443252;28;20487;-73
2023/10/03 05:00:21;;;;;;;10.73;4.72;;;;;;;14.29;59.75;97813.56;10442288;28;20510;-73
2023/10/03 05:05:43;;;;;;;13.20;4.78;;;;;;;14.28;59.70;97800.84;10428190;28;20124;-73
2023/10/03 05:11:06;;;;;;;11.18;4.75;;;;;;;14.40;60.39;97800.78;10442607;28;20065;-72
2023/10/03 05:16:27;;;;;;;13.20;4.97;;;;;;;14.84;60.81;97796.81;10442242;28;20112;-73
2023/10/03 05:21:48;;;;;;;12.43;5.00;;;;;;;15.55;60.89;97796.84;10442172;28;20117;-72
2023/10/03 05:27:09;;;;;;;11.63;5.32;;;;;;;16.37;60.35;97802.16;10442040;28;20498;-73
2023/10/03 05:32:29;;;;;;;13.35;5.38;;;;;;;17.99;59.54;97796.38;10427591;28;20044;-73
2023/10/03 05:37:51;;;;;;;12.90;5.38;;;;;;;23.09;53.69;97796.47;10413898;28;20044;-73
2023/10/03 05:43:12;;;;;;;12.40;5.95;;;;;;;27.64;45.35;97801.84;10440955;28;20048;-74
2023/10/03 05:48:34;;;;;;;10.45;5.43;;;;;;;30.70;39.63;97795.31;10455967;28;20121;-72
2023/10/03 05:53:55;;;;;;;9.80;4.95;;;;;;;32.69;35.51;97798.00;10457777;28;20452;-74
2023/10/03 05:59:16;;;;;;;9.43;5.40;;;;;;;34.89;31.46;97803.66;10449119;28;20509;-75
2023/10/03 06:04:38;;;;;;;7.57;4.75;;;;;;;35.72;25.44;97812.06;10434987;28;20133;-74
2023/10/03 06:09:59;;;;;;;11.07;5.65;;;;;;;37.10;23.03;97816.00;10434207;28;20045;-74
2023/10/03 06:15:20;;;;;;;9.50;5.55;;;;;;;39.30;21.22;97820.72;10448078;28;20167;-74
2023/10/03 06:20:41;;;;;;;8.98;5.05;;;;;;;40.67;19.16;97800.09;10434729;28;20052;-75
2023/10/03 06:26:01;;;;;;;9.35;5.28;;;;;;;41.06;17.27;97799.44;10463308;28;20064;-77
2023/10/03 06:31:22;;;;;;;10.50;5.82;;;;;;;41.32;16.21;97805.38;10433736;28;20538;-76
2023/10/03 06:36:43;;;;;;;12.13;5.45;;;;;;;41.27;16.33;97807.09;10447705;28;20068;-76
2023/10/03 06:42:04;;;;;;;10.15;5.30;;;;;;;42.46;14.69;97802.44;10462935;28;20065;-76
2023/10/03 06:47:25;;;;;;;9.10;5.28;;;;;;;43.69;12.96;97801.41;10447539;28;20120;-77
2023/10/03 06:52:47;;;;;;;9.20;5.40;;;;;;;44.48;12.60;97801.97;10447343;28;20065;-77
2023/10/03 06:58:10;;;;;;;7.60;4.88;;;;;;;44.61;12.27;97790.13;10447659;28;20068;-77
2023/10/03 07:03:31;;;;;;;8.75;5.50;;;;;;;44.74;11.72;97790.66;10447510;28;20076;-77
2023/10/03 07:08:52;;;;;;;9.27;5.47;;;;;;;45.38;11.83;97778.75;10445721;28;20112;-78
2023/10/03 07:14:14;;;;;;;8.00;4.88;;;;;;;47.29;10.73;97772.25;10447137;28;20183;-78
2023/10/03 07:19:35;;;;;;;7.45;4.78;;;;;;;47.13;10.21;97775.78;10446383;28;20037;-79
2023/10/03 07:24:55;;;;;;;7.63;4.13;;;;;;;47.41;10.01;97782.38;10461079;28;20521;-78
2023/10/03 07:30:18;;;;;;;7.50;4.30;;;;;;;47.11;10.03;97767.09;10445850;28;20493;-77
2023/10/03 07:35:41;;;;;;;6.45;3.88;;;;;;;48.76;9.42;97771.78;10460510;28;20495;-78
2023/10/03 07:41:09;;;;;;;9.70;3.92;;;;;;;48.56;9.06;97779.44;10445936;28;20071;-77
2023/10/03 07:46:30;;;;;;;6.07;3.40;;;;;;;49.53;8.62;97779.72;10445213;28;20497;-78
2023/10/03 07:51:55;;;;;;;8.38;3.63;;;;;;;51.11;7.56;97777.63;10444798;28;20187;-77
2023/10/03 07:57:16;;;;;;;10.93;3.60;;;;;;;51.22;7.96;97790.59;10418424;28;20163;-77
2023/10/03 08:02:43;;;;;;;7.43;3.40;;;;;;;51.51;7.06;97784.81;10459277;28;20052;-77
2023/10/03 08:08:05;;;;;;;5.43;2.92;;;;;;;52.66;6.62;97800.78;10432667;28;20120;-77
2023/10/03 08:13:26;;;;;;;5.53;2.80;;;;;;;49.13;8.00;97784.06;10430384;28;20052;-77
2023/10/03 08:18:57;;;;;;;8.93;3.53;;;;;;;40.72;12.51;97790.25;10444237;28;20091;-76
2023/10/03 08:24:24;;;;;;;6.60;3.58;;;;;;;38.57;16.28;97789.69;10431662;28;20076;-77
2023/10/03 08:29:50;;;;;;;7.60;3.50;;;;;;;45.14;12.47;97780.47;10431206;28;20041;-78
2023/10/03 08:35:12;;;;;;;7.85;2.90;;;;;;;47.01;11.00;97778.16;10431235;28;20155;-79
2023/10/03 08:40:37;;;;;;;4.68;3.03;;;;;;;50.20;8.11;97772.19;10429135;28;20071;-78
2023/10/03 08:45:58;;;;;;;6.40;3.30;;;;;;;52.04;7.72;97773.59;10429236;28;20443;-77
2023/10/03 08:51:20;;;;;;;5.38;2.95;;;;;;;52.69;6.65;97784.06;10428857;28;20064;-78
2023/10/03 08:56:41;;;;;;;5.65;3.00;;;;;;;53.42;7.03;97765.13;10443241;28;20056;-77
2023/10/03 09:02:08;;;;;;;7.40;3.75;;;;;;;53.67;6.26;97762.50;10442007;28;20106;-78
2023/10/03 09:07:43;;;;;;;7.15;3.30;;;;;;;54.33;6.20;97750.03;10415064;28;20052;-78
2023/10/03 09:13:04;;;;;;;;;;;;;;;54.41;5.46;97740.19;10414957;28;20052;-78
2023/10/03 09:18:29;;;;;;;5.25;3.50;;;;;;;54.22;5.96;97735.56;10457012;28;19970;-79
2023/10/03 09:24:10;;;;;;;7.13;3.75;;;;;;;53.45;6.61;97718.56;10436098;28;20052;-79
2023/10/03 09:29:31;;;;;;;10.07;6.00;;;;;;;53.12;6.44;97726.66;10414813;28;20479;-78
2023/10/03 09:35:09;;;;;;;11.23;6.95;;;;;;;52.20;6.77;97708.72;10441166;28;20047;-79
2023/10/03 09:40:51;;;;;;;9.88;6.60;;;;;;;53.92;6.43;97701.50;10418007;28;20040;-78
2023/10/03 09:46:12;;;;;;;9.65;6.90;;;;;;;50.42;7.27;97701.81;10441054;28;20124;-80
2023/10/03 09:51:45;;;;;;;11.15;7.07;;;;;;;45.51;10.17;97704.88;10413330;28;20087;-77
2023/10/03 09:57:16;;;;;;;12.50;7.90;;;;;;;44.85;11.58;97699.38;10430941;28;20049;-77
2023/10/03 10:02:37;;;;;;;14.75;8.38;;;;;;;47.12;10.20;97691.69;10428004;28;20446;-79
2023/10/03 10:08:08;;;;;;;12.40;8.63;;;;;;;49.46;9.06;97695.19;10424444;28;20055;-77
2023/10/03 10:13:34;;;;;;;12.38;8.13;;;;;;;50.33;8.46;97695.94;10455720;28;20052;-77
2023/10/03 10:18:57;;;;;;;11.65;8.73;;;;;;;49.43;8.73;97682.84;10427261;28;20053;-78
2023/10/03 10:24:40;;;;;;;;;;;;;;;49.12;8.11;97681.22;10441716;28;20045;-78
2023/10/03 10:30:13;;;;;;;14.23;10.40;;;;;;;41.25;12.11;97660.84;10443409;28;20345;-76
2023/10/03 10:35:54;;;;;;;16.88;11.00;;;;;;;40.23;14.19;97670.03;10441938;28;20094;-77
2023/10/03 10:41:17;;;;;;;16.90;10.43;;;;;;;45.17;11.54;97642.59;10431539;28;20103;-79
2023/10/03 10:46:44;;;;;;;14.95;9.82;;;;;;;49.72;8.81;97630.50;10462573;28;20045;-80
2023/10/03 10:52:07;;;;;;;14.23;8.90;;;;;;;50.17;7.64;97631.50;10433791;28;20053;-78
2023/10/03 10:57:31;;;;;;;11.50;8.07;;;;;;;48.83;8.32;97626.81;10433267;28;20430;-76
2023/10/03 11:02:53;;;;;;;12.63;7.93;;;;;;;49.36;7.88;97628.66;10412084;28;20395;-77
2023/10/03 11:08:14;;;;;;;12.25;8.13;;;;;;;48.41;8.40;97626.06;10446928;28;20037;-78
2023/10/03 11:13:44;;;;;;;11.15;8.25;;;;;;;48.43;8.60;97620.66;10433016;28;20509;-79
2023/10/03 11:19:06;;;;;;;11.20;7.90;;;;;;;46.96;9.52;97596.94;10432768;28;20044;-78
2023/10/03 11:24:28;;;;;;;13.07;7.82;;;;;;;47.14;9.41;97591.06;10460931;28;20037;-77
2023/10/03 11:29:50;;;;;;;9.38;6.75;;;;;;;47.96;8.67;97584.91;10432569;28;20171;-79
2023/10/03 11:35:16;;;;;;;14.95;7.68;;;;;;;46.71;8.81;97571.66;10460311;28;20444;-78
2023/10/03 11:40:40;;;;;;;13.68;7.20;;;;;;;44.73;9.35;97567.81;10432054;28;20041;-78
2023/10/03 11:46:01;;;;;;;15.05;7.63;;;;;;;39.97;12.91;97552.31;10438221;28;20127;-79
2023/10/03 11:51:22;;;;;;;14.13;8.15;;;;;;;37.27;15.68;97541.88;10430848;28;20498;-78
2023/10/03 11:56:47;;;;;;;16.10;7.35;;;;;;;35.54;17.79;97549.97;10417011;28;20483;-78
2023/10/03 12:02:08;;;;;;;16.55;7.78;;;;;;;34.55;19.07;97538.72;10431009;28;20053;-78
2023/10/03 12:07:29;;;;;;;12.07;6.72;;;;;;;33.86;19.82;97524.09;10441728;28;20083;-76
2023/10/03 12:12:51;;;;;;;13.57;7.47;;;;;;;33.45;20.56;97530.31;10444687;28;20384;-76
2023/10/03 12:18:15;;;;;;;16.58;7.00;;;;;;;32.68;21.24;97512.72;10444047;28;20037;-77
2023/10/03 12:23:37;;;;;;;14.35;6.82;;;;;;;32.68;21.58;97498.97;10403978;28;20068;-75
2023/10/03 12:29:02;;;;;;;14.45;6.63;;;;;;;32.37;22.09;97506.94;10443748;28;20045;-76
2023/10/03 12:34:25;;;;;;;15.52;6.70;;;;;;;31.82;23.00;97505.94;10444290;28;20448;-77
2023/10/03 12:39:46;;;;;;;12.57;6.50;;;;;;;31.66;23.57;97502.66;10457646;28;20037;-74
2023/10/03 12:45:10;;;;;;;15.00;6.67;;;;;;;31.37;23.61;97519.81;10443405;28;20041;-74
2023/10/03 12:50:31;;;;;;;13.77;6.57;;;;;;;30.49;24.59;97509.69;10428884;28;20045;-74
2023/10/03 12:55:57;;;;;;;15.45;6.38;;;;;;;29.89;26.46;97514.84;10429494;28;20483;-73
2023/10/03 13:01:18;;;;;;;14.68;7.13;;;;;;;29.81;26.23;97504.16;10427941;28;20041;-72
2023/10/03 13:06:39;;;;;;;12.33;6.67;;;;;;;29.87;26.43;97498.31;10455845;28;20119;-73
2023/10/03 13:12:03;;;;;;;;;;;;;;;29.42;27.18;97500.28;10456900;28;20048;-73
2023/10/03 13:17:26;;;;;;;14.05;6.22;;;;;;;28.97;27.90;97492.84;10456265;28;19927;-74
2023/10/03 13:22:47;;;;;;;15.05;6.13;;;;;;;28.51;28.42;97499.66;10455999;28;20427;-73
2023/10/03 13:28:10;;;;;;;12.70;6.00;;;;;;;28.58;28.49;97495.31;10427273;28;20065;-73
2023/10/03 13:33:35;;;;;;;15.70;5.88;;;;;;;28.55;29.14;97501.78;10455759;28;20068;-73
2023/10/03 13:38:57;;;;;;;15.57;5.10;;;;;;;28.45;29.25;97511.91;10441339;28;20048;-73
2023/10/03 13:44:19;;;;;;;12.95;6.00;;;;;;;28.08;29.93;97499.91;10427043;28;20076;-73
2023/10/03 13:49:40;;;;;;;11.13;5.75;;;;;;;28.15;30.15;97504.16;10427230;28;20493;-74
2023/10/03 13:55:06;;;;;;;11.50;5.60;;;;;;;28.40;29.89;97496.16;10427533;28;20076;-73
2023/10/03 14:00:35;;;;;;;12.35;5.15;;;;;;;28.50;29.83;97493.22;10455612;28;20064;-74
2023/10/03 14:05:56;;;;;;;15.13;5.85;;;;;;;28.45;30.17;97494.66;10436233;28;20049;-72
2023/10/03 14:11:18;;;;;;;14.73;5.30;;;;;;;28.49;30.26;97486.03;10440788;28;20033;-73
2023/10/03 14:16:41;;;;;;;10.85;5.55;;;;;;;28.46;30.21;97501.84;10445006;28;20144;-72
2023/10/03 14:22:02;;;;;;;11.13;4.90;;;;;;;28.37;30.41;97505.50;10463160;28;20098;-72
2023/10/03 14:27:23;;;;;;;12.65;4.85;;;;;;;28.13;30.79;97507.06;10448339;28;20052;-73
2023/10/03 14:32:46;;;;;;;12.15;5.25;;;;;;;27.93;31.34;97501.44;10447905;28;20049;-73
2023/10/03 14:38:07;;;;;;;14.07;5.28;;;;;;;27.60;31.54;97509.41;10462798;28;20037;-74
2023/10/03 14:43:31;;;;;;;9.85;5.47;;;;;;;27.24;32.38;97508.09;10462012;28;20361;-74
2023/10/03 14:48:51;;;;;;;14.90;5.15;;;;;;;26.97;33.57;97507.41;10433782;28;20052;-74
2023/10/03 14:54:13;;;;;;;10.43;5.50;;;;;;;26.76;34.21;97500.97;10419371;28;20045;-73
2023/10/03 14:59:34;;;;;;;10.25;5.20;;;;;;;26.65;34.40;97505.28;10433819;28;20045;-72
2023/10/03 15:04:55;;;;;;;11.10;5.30;;;;;;;26.62;35.06;97497.38;10474388;28;20430;-74
2023/10/03 15:10:16;;;;;;;10.05;4.85;;;;;;;26.51;34.80;97500.25;10487741;28;20047;-74
2023/10/03 15:15:37;;;;;;;11.10;5.35;;;;;;;26.47;35.45;97497.41;10502554;28;20063;-73
2023/10/03 15:20:58;;;;;;;10.55;5.13;;;;;;;26.37;35.31;97497.38;10487318;28;20041;-74
2023/10/03 15:26:20;;;;;;;13.85;5.43;;;;;;;26.28;35.87;97498.06;10473192;28;20044;-73
2023/10/03 15:31:41;;;;;;;10.47;5.87;;;;;;;26.18;35.99;97502.34;10487121;28;20410;-72
2023/10/03 15:37:11;;;;;;;10.95;5.63;;;;;;;26.15;36.40;97497.31;10486905;28;20045;-72
2023/10/03 15:42:34;;;;;;;13.20;6.05;;;;;;;26.05;37.05;97488.72;10487638;28;20045;-73
2023/10/03 15:47:56;;;;;;;11.88;5.68;;;;;;;26.00;36.89;97488.00;10493091;28;20143;-73
2023/10/03 15:53:19;;;;;;;8.77;5.00;;;;;;;26.05;37.40;97480.13;10472190;28;20045;-73
2023/10/03 15:58:41;;;;;;;12.68;5.50;;;;;;;26.01;37.30;97483.00;10485997;28;20044;-73
2023/10/03 16:04:02;;;;;;;14.82;5.50;;;;;;;26.04;37.77;97490.13;10451500;28;20111;-72
2023/10/03 16:09:25;;;;;;;12.75;6.35;;;;;;;25.99;37.52;97486.56;10459235;28;20091;-74
2023/10/03 16:14:46;;;;;;;17.00;6.45;;;;;;;25.82;38.38;97480.06;10444346;28;20041;-73
2023/10/03 16:20:11;;;;;;;12.32;5.60;;;;;;;25.60;38.35;97482.84;10459389;28;20037;-73
2023/10/03 16:25:32;;;;;;;14.70;6.20;;;;;;;25.42;39.12;97486.31;10443804;28;20049;-73
2023/10/03 16:30:53;;;;;;;15.65;5.93;;;;;;;25.24;39.35;97492.66;10429710;28;20051;-73
2023/10/03 16:36:13;;;;;;;13.88;6.43;;;;;;;25.08;40.16;97489.69;10424167;28;20061;-74
2023/10/03 16:41:34;;;;;;;14.43;6.18;;;;;;;24.92;40.29;97484.59;10442851;28;20065;-72
2023/10/03 16:46:55;;;;;;;13.75;6.15;;;;;;;24.80;41.07;97473.06;10458688;28;20072;-73
2023/10/03 16:52:17;;;;;;;11.32;6.30;;;;;;;24.66;41.73;97465.13;10443382;28;20479;-73
2023/10/03 16:57:37;;;;;;;14.70;6.15;;;;;;;24.53;41.82;97481.44;10429061;28;20487;-72
2023/10/03 17:02:58;;;;;;;12.55;6.22;;;;;;;24.46;42.31;97467.81;10457207;28;20433;-74
2023/10/03 17:08:20;;;;;;;16.77;6.50;;;;;;;24.43;42.46;97472.09;10442327;28;20482;-73
2023/10/03 17:13:41;;;;;;;15.02;6.53;;;;;;;24.38;42.89;97474.16;10427977;28;20352;-74
2023/10/03 17:19:08;;;;;;;16.23;6.70;;;;;;;24.32;43.61;97491.25;10441839;28;20045;-73
2023/10/03 17:24:29;;;;;;;13.38;5.93;;;;;;;24.19;44.84;97530.28;10429400;28;20045;-73
2023/10/03 17:30:23;;;;;;;15.90;6.30;;;;;;;23.18;53.51;97554.63;10456398;28;20069;-72
2023/10/03 17:35:51;;;;;;;6.03;2.40;;;;;;;21.37;57.29;97583.91;10456290;28;20369;-72
2023/10/03 17:41:11;;;;;;;4.15;1.52;;;;;;;20.83;58.63;97609.53;10427630;28;20115;-73
2023/10/03 17:46:33;;;;;;;4.60;1.77;;;;;;;20.57;59.94;97620.94;10427308;28;20052;-73
2023/10/03 17:51:54;;;;;;;7.13;1.92;;;;;;;20.39;61.54;97628.22;10426993;28;20122;-74
2023/10/03 17:57:15;;;;;;;8.23;2.47;;;;;;;20.22;61.78;97650.44;10456163;28;20116;-73
2023/10/03 18:02:36;;;;;;;8.20;3.10;;;;;;;20.07;62.45;97640.06;10426921;28;20076;-72
2023/10/03 18:07:57;;;;;;;5.47;3.25;;;;;;;19.98;63.18;97633.47;10440677;28;20041;-73
2023/10/03 18:13:18;;;;;;;8.73;3.55;;;;;;;19.91;64.28;97645.28;10440503;28;20065;-73
2023/10/03 18:18:39;;;;;;;9.20;4.03;;;;;;;19.87;64.96;97662.88;10440781;28;20525;-73
2023/10/03 18:24:00;;;;;;;12.95;4.22;;;;;;;19.90;66.07;97686.34;10440422;28;20045;-74
2023/10/03 18:29:21;;;;;;;9.80;4.18;;;;;;;19.91;66.41;97687.78;10440391;28;20116;-74
2023/10/03 18:34:42;;;;;;;9.90;4.10;;;;;;;19.90;66.19;97711.84;10439832;28;20453;-73
2023/10/03 18:40:06;;;;;;;10.73;4.50;;;;;;;19.84;66.80;97734.28;10440031;28;20045;-72
2023/10/03 18:45:31;;;;;;;9.20;3.88;;;;;;;19.91;66.90;97764.25;10424259;28;20124;-72
2023/10/03 18:51:07;;;;;;;7.63;2.50;;;;;;;19.92;66.56;97771.38;10441922;28;20064;-72
2023/10/03 18:56:28;;;;;;;3.83;2.05;;;;;;;19.89;65.67;97840.69;10425803;28;20112;-73
2023/10/03 19:01:49;;;;;;;1.95;0.60;;;;;;;19.57;64.94;97863.69;10441183;28;20172;-73
2023/10/03 19:07:12;;;;;;;4.53;1.13;;;;;;;19.10;65.86;97844.31;10447188;28;20049;-73
2023/10/03 19:12:37;;;;;;;1.92;0.43;;;;;;;18.77;66.75;97879.19;10433883;28;20061;-72
2023/10/03 19:17:58;;;;;;;2.95;0.80;;;;;;;18.46;67.76;97903.44;10432559;28;20076;-72
2023/10/03 19:23:19;;;;;;;3.78;0.60;;;;;;;18.20;68.76;97913.69;10446191;28;20056;-72
2023/10/03 19:28:40;;;;;;;2.88;0.80;;;;;;;17.93;69.88;97937.31;10446251;28;20479;-72
2023/10/03 19:34:02;;;;;;;1.88;0.43;;;;;;;17.74;70.42;97969.69;10460906;28;20430;-72
2023/10/03 19:39:23;;;;;;;1.90;0.60;;;;;;;17.73;70.46;97973.88;10460588;28;20076;-73
2023/10/03 19:44:44;;;;;;;4.28;0.50;;;;;;;17.62;70.64;97975.50;10446052;28;20491;-72
2023/10/03 19:50:06;;;;;;;1.92;0.68;;;;;;;17.54;70.06;98011.13;10445343;28;20045;-72
2023/10/03 19:55:27;;;;;;;2.38;0.57;;;;;;;17.49;69.82;98038.44;10431433;28;20048;-72
2023/10/03 20:00:48;;;;;;;0.88;0.30;;;;;;;17.43;69.80;98075.56;10431241;28;20044;-72
2023/10/03 20:06:09;;;;;;;2.78;0.40;;;;;;;17.45;69.74;98070.00;10459400;28;20072;-73
2023/10/03 20:11:31;;;;;;;1.10;0.40;;;;;;;17.39;69.77;98089.50;10430443;28;20041;-73
2023/10/03 20:16:51;;;;;;;1.77;0.50;;;;;;;17.34;69.74;98087.84;10430191;28;20079;-74
2023/10/03 20:22:12;;;;;;;1.60;0.50;;;;;;;17.22;70.11;98069.63;10444008;28;20045;-73
2023/10/03 20:27:37;;;;;;;1.10;0.40;;;;;;;17.23;69.96;98032.31;10416163;28;20509;-73
2023/10/03 20:33:00;;;;;;;1.50;0.47;;;;;;;17.19;71.09;98082.91;10443635;28;20120;-73
2023/10/03 20:38:23;;;;;;;2.42;0.80;;;;;;;17.18;71.35;98115.31;10443959;28;20052;-72
2023/10/03 20:43:43;;;;;;;2.27;0.57;;;;;;;17.14;71.32;98126.38;10443305;28;20564;-73
2023/10/03 20:49:04;;;;;;;2.45;0.50;;;;;;;17.08;71.68;98140.94;10429304;28;20064;-74
2023/10/03 20:54:26;;;;;;;1.33;0.55;;;;;;;16.98;72.18;98153.78;10442955;28;20433;-73
2023/10/03 20:59:47;;;;;;;1.88;0.60;;;;;;;16.85;72.81;98172.94;10442529;28;20533;-73
2023/10/03 21:05:12;;;;;;;1.65;0.52;;;;;;;16.66;73.16;98192.34;10457469;28;20111;-72
2023/10/03 21:10:37;;;;;;;1.58;0.60;;;;;;;16.49;73.82;98211.22;10415964;28;20075;-71
2023/10/03 21:16:04;;;;;;;1.85;0.77;;;;;;;16.36;74.53;98234.50;10429130;28;20483;-73
2023/10/03 21:21:25;;;;;;;1.90;0.63;;;;;;;16.29;74.85;98263.69;10429067;28;20069;-73
2023/10/03 21:26:46;;;;;;;2.30;0.85;;;;;;;16.28;73.81;98281.97;10440983;28;20392;-74
2023/10/03 21:32:08;;;;;;;3.15;0.35;;;;;;;16.17;71.94;98291.94;10441548;28;20118;-74
2023/10/03 21:37:28;;;;;;;1.10;0.32;;;;;;;15.91;70.93;98319.38;10456163;28;20117;-73
2023/10/03 21:42:50;;;;;;;1.33;0.40;;;;;;;15.71;70.18;98335.88;10427560;28;20541;-73
2023/10/03 21:48:11;;;;;;;0.90;0.35;;;;;;;15.58;69.97;98356.19;10441209;28;20069;-72
2023/10/03 21:53:32;;;;;;;1.60;0.38;;;;;;;15.46;69.56;98375.94;10441100;28;20068;-72
2023/10/03 21:58:53;;;;;;;1.88;0.40;;;;;;;15.28;69.18;98388.91;10427192;28;20450;-73
2023/10/03 22:04:14;;;;;;;3.30;0.50;;;;;;;15.18;68.84;98394.69;10455871;28;20477;-73
2023/10/03 22:09:35;;;;;;;0.90;0.30;;;;;;;15.06;68.14;98416.44;10440765;28;20140;-73
2023/10/03 22:14:56;;;;;;;1.67;0.40;;;;;;;14.96;68.17;98429.88;10427391;28;20117;-73
2023/10/03 22:20:16;;;;;;;2.22;0.60;;;;;;;14.83;67.83;98428.38;10440856;28;20040;-73
2023/10/03 22:25:37;;;;;;;2.13;0.50;;;;;;;14.63;67.38;98441.19;10440573;28;20491;-73
2023/10/03 22:30:58;;;;;;;1.23;0.50;;;;;;;14.54;67.40;98444.81;10440635;28;20115;-73
2023/10/03 22:36:19;;;;;;;3.97;0.50;;;;;;;14.38;67.44;98449.38;10443551;28;20072;-73
2023/10/03 22:41:43;;;;;;;2.05;0.60;;;;;;;14.27;67.03;98462.75;10435586;28;20068;-73
2023/10/03 22:47:04;;;;;;;1.63;0.57;;;;;;;14.13;66.87;98483.59;10463381;28;20072;-72
2023/10/03 22:52:24;;;;;;;4.22;0.80;;;;;;;14.02;66.87;98490.63;10462696;28;20045;-73
2023/10/03 22:57:46;;;;;;;2.40;0.60;;;;;;;13.90;66.96;98498.97;10433867;28;20065;-73
2023/10/03 23:03:08;;;;;;;3.53;0.88;;;;;;;13.81;67.11;98519.41;10447324;28;20069;-74
2023/10/03 23:08:29;;;;;;;3.15;0.73;;;;;;;13.74;66.66;98531.56;10447413;28;20486;-72
2023/10/03 23:13:50;;;;;;;2.42;0.50;;;;;;;13.61;66.70;98529.25;10446767;28;20467;-72
2023/10/03 23:19:11;;;;;;;2.03;0.70;;;;;;;13.54;66.83;98536.53;10419490;28;20045;-74
2023/10/03 23:24:32;;;;;;;2.17;0.68;;;;;;;13.49;66.91;98545.97;10446492;28;20406;-72
2023/10/03 23:29:55;;;;;;;4.72;0.60;;;;;;;13.39;67.00;98556.50;10461932;28;20072;-73
2023/10/03 23:35:17;;;;;;;2.28;0.73;;;;;;;13.37;67.08;98573.19;10446703;28;20041;-74
2023/10/03 23:40:38;;;;;;;3.42;0.65;;;;;;;13.36;66.94;98575.25;10445946;28;20446;-73
2023/10/03 23:46:09;;;;;;;2.20;0.50;;;;;;;13.29;67.12;98583.81;10460629;28;20041;-73
2023/10/03 23:51:30;;;;;;;1.83;0.50;;;;;;;13.22;66.74;98584.72;10431621;28;20099;-73
2023/10/03 23:56:51;;;;;;;3.95;0.50;;;;;;;13.15;66.78;98589.16;10439832;28;20087;-73
